sensor_id;sensor_type;location;lat;lon;timestamp;noise_LAeq;noise_LA_min;noise_LA_max;noise_LA01;noise_LA95
72805;Laerm;60920;48.748;19.142;2022-08-25T00:01:48;41.65;28.84;56.06;;
72805;Laerm;60920;48.748;19.142;2022-08-25T00:04:15;36.96;30.04;45.15;;
72805;Laerm;60920;48.748;19.142;2022-08-25T00:06:41;40.52;29.30;54.43;;
72805;Laerm;60920;48.748;19.142;2022-08-25T00:09:08;40.92;31.52;55.68;;
72805;Laerm;60920;48.748;19.142;2022-08-25T00:11:34;40.56;29.14;52.18;;
72805;Laerm;60920;48.748;19.142;2022-08-25T00:14:02;35.69;29.40;55.05;;
72805;Laerm;60920;48.748;19.142;2022-08-25T00:16:28;32.17;28.74;39.76;;
72805;Laerm;60920;48.748;19.142;2022-08-25T00:18:56;30.61;28.37;45.30;;
72805;Laerm;60920;48.748;19.142;2022-08-25T00:21:22;38.70;28.19;52.47;;
72805;Laerm;60920;48.748;19.142;2022-08-25T00:23:48;42.82;31.23;56.78;;
72805;Laerm;60920;48.748;19.142;2022-08-25T00:26:14;45.59;32.51;55.75;;
72805;Laerm;60920;48.748;19.142;2022-08-25T00:28:39;47.93;31.92;61.24;;
72805;Laerm;60920;48.748;19.142;2022-08-25T00:31:05;31.75;29.35;37.28;;
72805;Laerm;60920;48.748;19.142;2022-08-25T00:33:31;37.56;29.30;49.92;;
72805;Laerm;60920;48.748;19.142;2022-08-25T00:35:57;38.38;29.00;52.43;;
72805;Laerm;60920;48.748;19.142;2022-08-25T00:38:22;43.73;30.61;58.90;;
72805;Laerm;60920;48.748;19.142;2022-08-25T00:40:48;39.38;29.10;51.20;;
72805;Laerm;60920;48.748;19.142;2022-08-25T00:46:09;37.25;28.41;52.21;;
72805;Laerm;60920;48.748;19.142;2022-08-25T00:48:35;41.68;30.22;52.92;;
72805;Laerm;60920;48.748;19.142;2022-08-25T00:51:01;39.14;28.61;48.09;;
72805;Laerm;60920;48.748;19.142;2022-08-25T00:53:27;38.02;29.41;48.72;;
72805;Laerm;60920;48.748;19.142;2022-08-25T00:55:53;40.65;31.03;52.89;;
72805;Laerm;60920;48.748;19.142;2022-08-25T00:58:20;37.34;29.20;53.90;;
72805;Laerm;60920;48.748;19.142;2022-08-25T01:00:47;33.34;28.41;45.04;;
72805;Laerm;60920;48.748;19.142;2022-08-25T01:03:13;39.69;28.68;54.02;;
72805;Laerm;60920;48.748;19.142;2022-08-25T01:05:39;36.96;28.93;48.87;;
72805;Laerm;60920;48.748;19.142;2022-08-25T01:08:05;44.31;30.72;57.80;;
72805;Laerm;60920;48.748;19.142;2022-08-25T01:10:32;44.98;32.68;64.45;;
72805;Laerm;60920;48.748;19.142;2022-08-25T01:13:00;42.23;31.77;52.76;;
72805;Laerm;60920;48.748;19.142;2022-08-25T01:15:26;44.88;31.84;57.69;;
72805;Laerm;60920;48.748;19.142;2022-08-25T01:17:53;38.19;31.22;44.66;;
72805;Laerm;60920;48.748;19.142;2022-08-25T01:20:24;43.61;31.94;56.35;;
72805;Laerm;60920;48.748;19.142;2022-08-25T01:22:51;41.66;32.20;51.63;;
72805;Laerm;60920;48.748;19.142;2022-08-25T01:27:54;42.10;29.93;51.43;;
72805;Laerm;60920;48.748;19.142;2022-08-25T01:30:19;43.90;29.20;58.91;;
72805;Laerm;60920;48.748;19.142;2022-08-25T01:32:45;38.84;30.08;50.07;;
72805;Laerm;60920;48.748;19.142;2022-08-25T01:35:11;37.93;29.12;47.47;;
72805;Laerm;60920;48.748;19.142;2022-08-25T01:37:36;43.02;30.55;54.60;;
72805;Laerm;60920;48.748;19.142;2022-08-25T01:40:02;39.81;29.56;51.55;;
72805;Laerm;60920;48.748;19.142;2022-08-25T01:45:03;40.37;31.35;52.13;;
72805;Laerm;60920;48.748;19.142;2022-08-25T01:47:29;42.28;31.58;52.18;;
72805;Laerm;60920;48.748;19.142;2022-08-25T01:49:55;42.40;30.32;57.76;;
72805;Laerm;60920;48.748;19.142;2022-08-25T01:52:27;43.19;31.51;58.38;;
72805;Laerm;60920;48.748;19.142;2022-08-25T01:54:52;40.34;30.16;51.18;;
72805;Laerm;60920;48.748;19.142;2022-08-25T01:57:18;38.90;28.91;50.58;;
72805;Laerm;60920;48.748;19.142;2022-08-25T01:59:43;43.02;31.02;55.89;;
72805;Laerm;60920;48.748;19.142;2022-08-25T02:02:09;43.84;31.54;54.55;;
72805;Laerm;60920;48.748;19.142;2022-08-25T02:04:34;40.46;28.31;51.71;;
72805;Laerm;60920;48.748;19.142;2022-08-25T02:07:01;37.28;29.14;51.22;;
72805;Laerm;60920;48.748;19.142;2022-08-25T02:09:27;44.58;33.90;55.58;;
72805;Laerm;60920;48.748;19.142;2022-08-25T02:11:53;44.70;34.67;54.70;;
72805;Laerm;60920;48.748;19.142;2022-08-25T02:14:18;42.78;32.76;54.00;;
72805;Laerm;60920;48.748;19.142;2022-08-25T02:16:47;42.42;32.19;53.88;;
72805;Laerm;60920;48.748;19.142;2022-08-25T02:19:13;42.79;31.87;54.37;;
72805;Laerm;60920;48.748;19.142;2022-08-25T02:21:39;43.50;32.44;58.47;;
72805;Laerm;60920;48.748;19.142;2022-08-25T02:24:05;40.51;30.70;53.14;;
72805;Laerm;60920;48.748;19.142;2022-08-25T02:26:31;41.93;29.88;53.30;;
72805;Laerm;60920;48.748;19.142;2022-08-25T02:28:56;43.98;30.96;57.11;;
72805;Laerm;60920;48.748;19.142;2022-08-25T02:31:23;44.10;31.36;57.18;;
72805;Laerm;60920;48.748;19.142;2022-08-25T02:33:49;42.76;30.99;56.15;;
72805;Laerm;60920;48.748;19.142;2022-08-25T02:36:15;44.28;31.91;55.89;;
72805;Laerm;60920;48.748;19.142;2022-08-25T02:38:40;40.75;33.20;50.29;;
72805;Laerm;60920;48.748;19.142;2022-08-25T02:41:13;44.30;33.66;59.27;;
72805;Laerm;60920;48.748;19.142;2022-08-25T02:43:39;47.05;35.19;56.90;;
72805;Laerm;60920;48.748;19.142;2022-08-25T02:46:05;45.49;32.41;56.45;;
72805;Laerm;60920;48.748;19.142;2022-08-25T02:48:31;48.11;34.69;59.06;;
72805;Laerm;60920;48.748;19.142;2022-08-25T02:50:58;46.19;35.65;56.77;;
72805;Laerm;60920;48.748;19.142;2022-08-25T02:53:24;45.09;32.26;54.91;;
72805;Laerm;60920;48.748;19.142;2022-08-25T02:55:50;46.24;35.80;56.12;;
72805;Laerm;60920;48.748;19.142;2022-08-25T02:58:15;42.73;34.32;50.94;;
72805;Laerm;60920;48.748;19.142;2022-08-25T03:00:41;44.05;33.07;52.35;;
72805;Laerm;60920;48.748;19.142;2022-08-25T03:03:06;45.01;34.40;55.71;;
72805;Laerm;60920;48.748;19.142;2022-08-25T03:05:32;45.02;32.74;51.49;;
72805;Laerm;60920;48.748;19.142;2022-08-25T03:07:57;45.43;38.08;54.39;;
72805;Laerm;60920;48.748;19.142;2022-08-25T03:10:22;46.03;39.33;55.97;;
72805;Laerm;60920;48.748;19.142;2022-08-25T03:12:48;47.98;41.58;58.61;;
72805;Laerm;60920;48.748;19.142;2022-08-25T03:15:14;47.84;41.73;54.30;;
72805;Laerm;60920;48.748;19.142;2022-08-25T03:17:41;48.59;40.45;56.46;;
72805;Laerm;60920;48.748;19.142;2022-08-25T03:20:06;48.55;38.76;56.16;;
72805;Laerm;60920;48.748;19.142;2022-08-25T03:22:32;47.56;39.77;54.34;;
72805;Laerm;60920;48.748;19.142;2022-08-25T03:24:57;49.80;41.62;57.08;;
72805;Laerm;60920;48.748;19.142;2022-08-25T03:27:43;46.93;38.04;53.18;;
72805;Laerm;60920;48.748;19.142;2022-08-25T03:30:08;49.01;42.32;57.61;;
72805;Laerm;60920;48.748;19.142;2022-08-25T03:32:34;48.55;38.69;57.71;;
72805;Laerm;60920;48.748;19.142;2022-08-25T03:34:59;47.95;40.59;54.50;;
72805;Laerm;60920;48.748;19.142;2022-08-25T03:37:26;46.69;39.74;50.81;;
72805;Laerm;60920;48.748;19.142;2022-08-25T03:39:51;49.34;42.82;58.08;;
72805;Laerm;60920;48.748;19.142;2022-08-25T03:42:17;49.69;44.86;53.84;;
72805;Laerm;60920;48.748;19.142;2022-08-25T03:44:42;50.09;43.62;56.87;;
72805;Laerm;60920;48.748;19.142;2022-08-25T03:47:07;50.50;44.04;57.33;;
72805;Laerm;60920;48.748;19.142;2022-08-25T03:49:32;49.82;42.57;55.52;;
72805;Laerm;60920;48.748;19.142;2022-08-25T03:51:58;49.46;39.76;56.19;;
72805;Laerm;60920;48.748;19.142;2022-08-25T03:54:24;49.28;41.58;55.94;;
72805;Laerm;60920;48.748;19.142;2022-08-25T03:56:50;50.82;44.90;61.02;;
72805;Laerm;60920;48.748;19.142;2022-08-25T03:59:15;50.69;40.84;60.39;;
72805;Laerm;60920;48.748;19.142;2022-08-25T04:01:41;48.93;40.81;53.81;;
72805;Laerm;60920;48.748;19.142;2022-08-25T04:04:08;50.67;42.67;58.97;;
72805;Laerm;60920;48.748;19.142;2022-08-25T04:06:33;49.80;44.23;55.54;;
72805;Laerm;60920;48.748;19.142;2022-08-25T04:08:59;50.33;44.59;57.08;;
72805;Laerm;60920;48.748;19.142;2022-08-25T04:11:25;51.57;45.14;59.15;;
72805;Laerm;60920;48.748;19.142;2022-08-25T04:13:51;49.77;43.41;57.27;;
72805;Laerm;60920;48.748;19.142;2022-08-25T04:16:18;51.22;44.84;60.46;;
72805;Laerm;60920;48.748;19.142;2022-08-25T04:18:44;50.41;43.78;57.09;;
72805;Laerm;60920;48.748;19.142;2022-08-25T04:21:10;51.84;45.08;60.97;;
72805;Laerm;60920;48.748;19.142;2022-08-25T04:23:39;49.31;44.05;56.48;;
72805;Laerm;60920;48.748;19.142;2022-08-25T04:26:12;51.76;45.17;57.25;;
72805;Laerm;60920;48.748;19.142;2022-08-25T04:28:37;52.51;46.38;61.68;;
72805;Laerm;60920;48.748;19.142;2022-08-25T04:31:06;52.11;46.09;60.72;;
72805;Laerm;60920;48.748;19.142;2022-08-25T04:33:32;52.04;45.21;59.31;;
72805;Laerm;60920;48.748;19.142;2022-08-25T04:35:58;52.04;45.63;60.74;;
72805;Laerm;60920;48.748;19.142;2022-08-25T04:38:23;50.86;45.10;56.45;;
72805;Laerm;60920;48.748;19.142;2022-08-25T04:40:56;52.04;47.26;57.48;;
72805;Laerm;60920;48.748;19.142;2022-08-25T04:43:21;52.39;46.34;57.42;;
72805;Laerm;60920;48.748;19.142;2022-08-25T04:45:46;52.39;49.11;57.48;;
72805;Laerm;60920;48.748;19.142;2022-08-25T04:48:12;52.40;48.73;63.74;;
72805;Laerm;60920;48.748;19.142;2022-08-25T04:50:38;54.13;48.85;66.02;;
72805;Laerm;60920;48.748;19.142;2022-08-25T04:53:03;52.64;46.55;67.99;;
72805;Laerm;60920;48.748;19.142;2022-08-25T04:55:29;51.85;46.21;59.86;;
72805;Laerm;60920;48.748;19.142;2022-08-25T04:57:54;52.01;47.26;56.45;;
72805;Laerm;60920;48.748;19.142;2022-08-25T05:00:19;51.98;45.99;58.43;;
72805;Laerm;60920;48.748;19.142;2022-08-25T05:02:45;51.69;45.29;69.54;;
72805;Laerm;60920;48.748;19.142;2022-08-25T05:05:10;51.18;46.88;70.06;;
72805;Laerm;60920;48.748;19.142;2022-08-25T05:07:35;52.09;46.70;67.90;;
72805;Laerm;60920;48.748;19.142;2022-08-25T05:10:01;51.33;46.46;56.94;;
72805;Laerm;60920;48.748;19.142;2022-08-25T05:12:26;51.54;45.93;64.10;;
72805;Laerm;60920;48.748;19.142;2022-08-25T05:14:52;52.53;48.13;59.09;;
72805;Laerm;60920;48.748;19.142;2022-08-25T05:17:18;51.82;46.99;57.52;;
72805;Laerm;60920;48.748;19.142;2022-08-25T05:19:43;52.19;47.39;59.36;;
72805;Laerm;60920;48.748;19.142;2022-08-25T05:22:08;51.70;47.02;55.96;;
72805;Laerm;60920;48.748;19.142;2022-08-25T05:24:34;52.54;47.64;59.45;;
72805;Laerm;60920;48.748;19.142;2022-08-25T05:26:59;51.03;46.90;57.88;;
72805;Laerm;60920;48.748;19.142;2022-08-25T05:29:25;51.85;46.05;58.85;;
72805;Laerm;60920;48.748;19.142;2022-08-25T05:31:51;51.83;46.87;59.88;;
72805;Laerm;60920;48.748;19.142;2022-08-25T05:34:17;51.39;46.97;57.13;;
72805;Laerm;60920;48.748;19.142;2022-08-25T05:36:43;52.80;46.74;59.26;;
72805;Laerm;60920;48.748;19.142;2022-08-25T05:39:11;52.04;46.53;65.22;;
72805;Laerm;60920;48.748;19.142;2022-08-25T05:41:37;52.37;47.60;59.57;;
72805;Laerm;60920;48.748;19.142;2022-08-25T05:44:02;52.09;47.49;56.80;;
72805;Laerm;60920;48.748;19.142;2022-08-25T05:46:28;52.40;48.77;59.81;;
72805;Laerm;60920;48.748;19.142;2022-08-25T05:48:53;52.08;46.01;64.30;;
72805;Laerm;60920;48.748;19.142;2022-08-25T05:51:19;52.54;47.11;67.24;;
72805;Laerm;60920;48.748;19.142;2022-08-25T05:53:46;53.59;47.38;65.60;;
72805;Laerm;60920;48.748;19.142;2022-08-25T05:56:12;54.33;47.99;68.04;;
72805;Laerm;60920;48.748;19.142;2022-08-25T05:58:41;54.05;47.46;73.05;;
72805;Laerm;60920;48.748;19.142;2022-08-25T06:01:07;53.54;47.46;72.59;;
72805;Laerm;60920;48.748;19.142;2022-08-25T06:03:51;52.69;45.79;67.64;;
72805;Laerm;60920;48.748;19.142;2022-08-25T06:06:23;55.60;45.88;77.08;;
72805;Laerm;60920;48.748;19.142;2022-08-25T06:08:48;55.19;46.18;73.65;;
72805;Laerm;60920;48.748;19.142;2022-08-25T06:11:14;52.81;45.66;72.77;;
72805;Laerm;60920;48.748;19.142;2022-08-25T06:13:40;54.38;46.96;75.25;;
72805;Laerm;60920;48.748;19.142;2022-08-25T06:16:05;52.62;47.60;69.04;;
72805;Laerm;60920;48.748;19.142;2022-08-25T06:18:31;53.77;46.32;70.02;;
72805;Laerm;60920;48.748;19.142;2022-08-25T06:20:56;55.46;47.33;72.45;;
72805;Laerm;60920;48.748;19.142;2022-08-25T06:23:22;57.48;47.88;75.73;;
72805;Laerm;60920;48.748;19.142;2022-08-25T06:25:48;57.50;47.78;72.47;;
72805;Laerm;60920;48.748;19.142;2022-08-25T06:28:14;58.03;43.81;74.90;;
72805;Laerm;60920;48.748;19.142;2022-08-25T06:30:39;58.48;45.29;76.47;;
72805;Laerm;60920;48.748;19.142;2022-08-25T06:33:04;58.87;44.79;81.06;;
72805;Laerm;60920;48.748;19.142;2022-08-25T06:35:30;56.66;45.07;75.32;;
72805;Laerm;60920;48.748;19.142;2022-08-25T06:37:55;54.72;45.33;73.97;;
72805;Laerm;60920;48.748;19.142;2022-08-25T06:40:20;55.36;44.40;71.00;;
72805;Laerm;60920;48.748;19.142;2022-08-25T06:42:47;55.76;44.56;74.67;;
72805;Laerm;60920;48.748;19.142;2022-08-25T06:45:13;55.72;45.66;72.78;;
72805;Laerm;60920;48.748;19.142;2022-08-25T06:47:39;54.17;45.34;77.42;;
72805;Laerm;60920;48.748;19.142;2022-08-25T06:50:04;52.95;45.63;74.16;;
72805;Laerm;60920;48.748;19.142;2022-08-25T06:52:30;53.35;46.80;69.04;;
72805;Laerm;60920;48.748;19.142;2022-08-25T06:54:55;58.16;48.98;78.21;;
72805;Laerm;60920;48.748;19.142;2022-08-25T06:57:21;61.17;50.77;79.09;;
72805;Laerm;60920;48.748;19.142;2022-08-25T06:59:46;60.21;47.17;76.16;;
72805;Laerm;60920;48.748;19.142;2022-08-25T07:02:12;56.22;45.88;73.69;;
72805;Laerm;60920;48.748;19.142;2022-08-25T07:04:37;56.15;45.24;75.87;;
72805;Laerm;60920;48.748;19.142;2022-08-25T07:07:03;59.86;45.91;83.56;;
72805;Laerm;60920;48.748;19.142;2022-08-25T07:09:29;62.86;44.32;84.23;;
72805;Laerm;60920;48.748;19.142;2022-08-25T07:11:54;57.57;46.40;74.92;;
72805;Laerm;60920;48.748;19.142;2022-08-25T07:14:19;57.27;44.27;78.54;;
72805;Laerm;60920;48.748;19.142;2022-08-25T07:16:46;54.96;44.70;70.02;;
72805;Laerm;60920;48.748;19.142;2022-08-25T07:19:11;54.30;46.85;68.14;;
72805;Laerm;60920;48.748;19.142;2022-08-25T07:21:37;54.23;45.19;70.07;;
72805;Laerm;60920;48.748;19.142;2022-08-25T07:24:04;53.84;46.05;73.86;;
72805;Laerm;60920;48.748;19.142;2022-08-25T07:26:31;53.32;47.15;68.60;;
72805;Laerm;60920;48.748;19.142;2022-08-25T07:28:58;54.53;45.46;70.20;;
72805;Laerm;60920;48.748;19.142;2022-08-25T07:31:24;56.52;47.40;71.85;;
72805;Laerm;60920;48.748;19.142;2022-08-25T07:33:49;54.48;46.87;71.49;;
72805;Laerm;60920;48.748;19.142;2022-08-25T07:36:33;53.78;47.40;74.93;;
72805;Laerm;60920;48.748;19.142;2022-08-25T07:38:59;54.84;45.85;72.28;;
72805;Laerm;60920;48.748;19.142;2022-08-25T07:41:28;55.67;45.59;70.46;;
72805;Laerm;60920;48.748;19.142;2022-08-25T07:43:54;52.85;45.56;67.16;;
72805;Laerm;60920;48.748;19.142;2022-08-25T07:46:20;53.16;45.90;66.85;;
72805;Laerm;60920;48.748;19.142;2022-08-25T07:48:45;55.03;46.29;71.11;;
72805;Laerm;60920;48.748;19.142;2022-08-25T07:51:11;55.01;46.99;69.17;;
72805;Laerm;60920;48.748;19.142;2022-08-25T07:53:38;55.35;47.43;71.50;;
72805;Laerm;60920;48.748;19.142;2022-08-25T07:56:08;55.25;45.75;69.74;;
72805;Laerm;60920;48.748;19.142;2022-08-25T07:58:33;57.12;47.97;71.81;;
72805;Laerm;60920;48.748;19.142;2022-08-25T08:00:58;52.97;46.31;69.48;;
72805;Laerm;60920;48.748;19.142;2022-08-25T08:03:24;54.22;45.30;68.11;;
72805;Laerm;60920;48.748;19.142;2022-08-25T08:05:49;53.78;47.31;69.97;;
72805;Laerm;60920;48.748;19.142;2022-08-25T08:08:14;52.99;46.15;67.61;;
72805;Laerm;60920;48.748;19.142;2022-08-25T08:10:40;54.06;46.31;71.06;;
72805;Laerm;60920;48.748;19.142;2022-08-25T08:13:06;55.35;47.90;69.92;;
72805;Laerm;60920;48.748;19.142;2022-08-25T08:15:32;54.12;46.33;69.74;;
72805;Laerm;60920;48.748;19.142;2022-08-25T08:17:58;54.35;47.09;70.17;;
72805;Laerm;60920;48.748;19.142;2022-08-25T08:20:23;54.98;46.16;72.50;;
72805;Laerm;60920;48.748;19.142;2022-08-25T08:22:49;52.49;46.69;64.50;;
72805;Laerm;60920;48.748;19.142;2022-08-25T08:25:14;55.08;44.03;71.38;;
72805;Laerm;60920;48.748;19.142;2022-08-25T08:27:39;54.55;45.26;74.33;;
72805;Laerm;60920;48.748;19.142;2022-08-25T08:30:07;53.48;42.38;69.61;;
72805;Laerm;60920;48.748;19.142;2022-08-25T08:32:32;54.78;46.85;71.53;;
72805;Laerm;60920;48.748;19.142;2022-08-25T08:34:57;54.43;47.43;69.78;;
72805;Laerm;60920;48.748;19.142;2022-08-25T08:37:23;55.18;47.25;71.65;;
72805;Laerm;60920;48.748;19.142;2022-08-25T08:39:48;56.41;45.14;71.45;;
72805;Laerm;60920;48.748;19.142;2022-08-25T08:55:22;64.42;46.00;82.00;;
72805;Laerm;60920;48.748;19.142;2022-08-25T08:57:50;54.14;47.99;63.98;;
72805;Laerm;60920;48.748;19.142;2022-08-25T09:00:19;57.99;47.03;79.49;;
72805;Laerm;60920;48.748;19.142;2022-08-25T09:02:48;56.96;47.42;71.61;;
72805;Laerm;60920;48.748;19.142;2022-08-25T09:05:15;59.89;48.97;76.30;;
72805;Laerm;60920;48.748;19.142;2022-08-25T09:07:44;58.26;48.24;76.44;;
72805;Laerm;60920;48.748;19.142;2022-08-25T09:10:11;58.02;48.07;75.90;;
72805;Laerm;60920;48.748;19.142;2022-08-25T09:15:12;53.47;48.78;64.60;;
72805;Laerm;60920;48.748;19.142;2022-08-25T09:17:57;52.87;45.25;69.87;;
72805;Laerm;60920;48.748;19.142;2022-08-25T09:20:34;53.90;46.32;67.27;;
72805;Laerm;60920;48.748;19.142;2022-08-25T09:25:52;54.93;48.85;70.97;;
72805;Laerm;60920;48.748;19.142;2022-08-25T09:28:42;52.58;45.75;66.44;;
72805;Laerm;60920;48.748;19.142;2022-08-25T09:31:14;53.70;47.20;70.44;;
72805;Laerm;60920;48.748;19.142;2022-08-25T09:33:41;55.37;47.15;73.09;;
72805;Laerm;60920;48.748;19.142;2022-08-25T09:36:07;52.95;47.02;64.03;;
72805;Laerm;60920;48.748;19.142;2022-08-25T09:38:32;52.69;46.93;64.04;;
72805;Laerm;60920;48.748;19.142;2022-08-25T09:40:58;53.18;46.43;66.51;;
72805;Laerm;60920;48.748;19.142;2022-08-25T09:43:40;53.58;46.54;70.16;;
72805;Laerm;60920;48.748;19.142;2022-08-25T09:48:56;52.65;46.73;58.66;;
72805;Laerm;60920;48.748;19.142;2022-08-25T09:56:24;49.92;44.25;56.91;;
72805;Laerm;60920;48.748;19.142;2022-08-25T09:58:50;50.51;44.24;62.48;;
72805;Laerm;60920;48.748;19.142;2022-08-25T10:01:20;53.61;47.31;68.34;;
72805;Laerm;60920;48.748;19.142;2022-08-25T10:03:53;52.65;46.09;61.36;;
72805;Laerm;60920;48.748;19.142;2022-08-25T10:06:19;51.94;46.98;62.71;;
72805;Laerm;60920;48.748;19.142;2022-08-25T10:11:28;51.64;46.78;59.01;;
72805;Laerm;60920;48.748;19.142;2022-08-25T10:16:38;51.80;45.02;63.05;;
72805;Laerm;60920;48.748;19.142;2022-08-25T10:19:21;51.94;47.11;64.35;;
72805;Laerm;60920;48.748;19.142;2022-08-25T10:22:10;52.36;45.41;60.67;;
72805;Laerm;60920;48.748;19.142;2022-08-25T10:24:34;54.01;47.07;59.39;;
72805;Laerm;60920;48.748;19.142;2022-08-25T10:27:01;52.24;46.82;60.78;;
72805;Laerm;60920;48.748;19.142;2022-08-25T10:32:03;55.71;48.78;66.01;;
72805;Laerm;60920;48.748;19.142;2022-08-25T10:34:36;52.49;46.56;58.39;;
72805;Laerm;60920;48.748;19.142;2022-08-25T10:40:00;51.75;45.79;58.81;;
72805;Laerm;60920;48.748;19.142;2022-08-25T10:42:29;51.15;45.97;57.17;;
72805;Laerm;60920;48.748;19.142;2022-08-25T10:45:14;51.95;47.20;60.09;;
72805;Laerm;60920;48.748;19.142;2022-08-25T10:48:03;53.65;47.09;66.87;;
72805;Laerm;60920;48.748;19.142;2022-08-25T10:50:32;53.66;49.01;62.75;;
72805;Laerm;60920;48.748;19.142;2022-08-25T10:58:03;52.94;47.06;59.84;;
72805;Laerm;60920;48.748;19.142;2022-08-25T11:00:40;51.41;45.07;58.40;;
72805;Laerm;60920;48.748;19.142;2022-08-25T11:05:54;52.57;47.82;60.98;;
72805;Laerm;60920;48.748;19.142;2022-08-25T11:11:00;51.19;46.70;57.42;;
72805;Laerm;60920;48.748;19.142;2022-08-25T11:13:41;50.92;46.38;56.10;;
72805;Laerm;60920;48.748;19.142;2022-08-25T11:16:12;51.99;45.84;61.29;;
72805;Laerm;60920;48.748;19.142;2022-08-25T11:18:48;52.05;46.80;57.74;;
72805;Laerm;60920;48.748;19.142;2022-08-25T11:21:15;52.13;46.52;63.53;;
72805;Laerm;60920;48.748;19.142;2022-08-25T11:23:52;51.50;45.60;56.21;;
72805;Laerm;60920;48.748;19.142;2022-08-25T11:26:21;52.75;45.59;58.16;;
72805;Laerm;60920;48.748;19.142;2022-08-25T11:31:18;51.76;47.00;57.99;;
72805;Laerm;60920;48.748;19.142;2022-08-25T11:33:45;51.13;46.27;55.85;;
72805;Laerm;60920;48.748;19.142;2022-08-25T11:36:32;52.71;47.27;59.25;;
72805;Laerm;60920;48.748;19.142;2022-08-25T11:39:14;56.61;46.14;82.99;;
72805;Laerm;60920;48.748;19.142;2022-08-25T11:51:53;53.62;47.53;67.50;;
72805;Laerm;60920;48.748;19.142;2022-08-25T11:56:55;53.40;47.68;65.86;;
72805;Laerm;60920;48.748;19.142;2022-08-25T12:02:05;53.73;46.96;67.22;;
72805;Laerm;60920;48.748;19.142;2022-08-25T12:04:35;53.70;47.66;69.56;;
72805;Laerm;60920;48.748;19.142;2022-08-25T12:09:30;54.73;48.79;67.50;;
72805;Laerm;60920;48.748;19.142;2022-08-25T12:11:56;53.73;47.58;69.31;;
72805;Laerm;60920;48.748;19.142;2022-08-25T12:21:50;52.11;46.55;71.06;;
72805;Laerm;60920;48.748;19.142;2022-08-25T12:24:17;53.73;44.68;65.90;;
72805;Laerm;60920;48.748;19.142;2022-08-25T12:26:47;53.40;47.70;66.72;;
72805;Laerm;60920;48.748;19.142;2022-08-25T12:31:46;52.71;45.46;68.11;;
72805;Laerm;60920;48.748;19.142;2022-08-25T12:34:20;52.58;47.58;64.62;;
72805;Laerm;60920;48.748;19.142;2022-08-25T12:36:58;52.37;47.28;66.15;;
72805;Laerm;60920;48.748;19.142;2022-08-25T12:39:35;52.73;46.59;67.00;;
72805;Laerm;60920;48.748;19.142;2022-08-25T12:42:06;54.30;48.24;69.57;;
72805;Laerm;60920;48.748;19.142;2022-08-25T12:44:46;55.94;46.40;70.63;;
72805;Laerm;60920;48.748;19.142;2022-08-25T12:47:24;54.96;46.81;77.35;;
72805;Laerm;60920;48.748;19.142;2022-08-25T12:50:23;66.05;45.43;86.54;;
72805;Laerm;60920;48.748;19.142;2022-08-25T12:52:39;61.23;47.73;83.67;;
72805;Laerm;60920;48.748;19.142;2022-08-25T12:55:04;52.88;47.81;69.02;;
72805;Laerm;60920;48.748;19.142;2022-08-25T12:57:43;52.29;46.01;65.98;;
72805;Laerm;60920;48.748;19.142;2022-08-25T13:00:31;54.20;46.72;69.23;;
72805;Laerm;60920;48.748;19.142;2022-08-25T13:05:40;52.30;45.93;61.38;;
72805;Laerm;60920;48.748;19.142;2022-08-25T13:16:16;54.46;47.18;70.70;;
72805;Laerm;60920;48.748;19.142;2022-08-25T13:18:41;52.74;46.93;63.76;;
72805;Laerm;60920;48.748;19.142;2022-08-25T13:21:18;53.48;47.35;64.59;;
72805;Laerm;60920;48.748;19.142;2022-08-25T13:23:44;53.22;48.10;64.76;;
72805;Laerm;60920;48.748;19.142;2022-08-25T13:26:14;53.19;48.33;69.61;;
72805;Laerm;60920;48.748;19.142;2022-08-25T13:28:41;55.47;45.98;70.35;;
72805;Laerm;60920;48.748;19.142;2022-08-25T13:31:08;54.31;48.11;68.64;;
72805;Laerm;60920;48.748;19.142;2022-08-25T13:33:37;52.69;47.76;65.04;;
72805;Laerm;60920;48.748;19.142;2022-08-25T13:36:03;53.59;48.05;71.15;;
72805;Laerm;60920;48.748;19.142;2022-08-25T13:38:47;53.21;48.20;65.52;;
72805;Laerm;60920;48.748;19.142;2022-08-25T13:41:17;54.27;47.87;67.63;;
72805;Laerm;60920;48.748;19.142;2022-08-25T13:43:43;53.05;47.63;76.42;;
72805;Laerm;60920;48.748;19.142;2022-08-25T13:46:08;51.99;47.11;68.01;;
72805;Laerm;60920;48.748;19.142;2022-08-25T13:48:35;52.44;46.61;71.29;;
72805;Laerm;60920;48.748;19.142;2022-08-25T13:51:20;52.88;46.28;64.64;;
72805;Laerm;60920;48.748;19.142;2022-08-25T13:53:51;53.45;47.85;65.72;;
72805;Laerm;60920;48.748;19.142;2022-08-25T13:56:24;53.30;48.33;66.49;;
72805;Laerm;60920;48.748;19.142;2022-08-25T13:58:51;52.54;46.83;63.95;;
72805;Laerm;60920;48.748;19.142;2022-08-25T14:03:46;53.31;46.84;69.82;;
72805;Laerm;60920;48.748;19.142;2022-08-25T14:08:44;53.96;49.00;70.06;;
72805;Laerm;60920;48.748;19.142;2022-08-25T14:13:58;54.00;48.69;68.54;;
72805;Laerm;60920;48.748;19.142;2022-08-25T14:16:23;53.39;48.14;72.35;;
72805;Laerm;60920;48.748;19.142;2022-08-25T14:18:52;53.65;47.97;64.98;;
72805;Laerm;60920;48.748;19.142;2022-08-25T14:21:19;52.74;47.91;64.72;;
72805;Laerm;60920;48.748;19.142;2022-08-25T14:23:46;54.00;48.96;63.42;;
72805;Laerm;60920;48.748;19.142;2022-08-25T14:26:12;53.80;47.34;69.39;;
72805;Laerm;60920;48.748;19.142;2022-08-25T14:28:37;53.70;48.61;67.08;;
72805;Laerm;60920;48.748;19.142;2022-08-25T14:31:11;53.81;47.60;62.97;;
72805;Laerm;60920;48.748;19.142;2022-08-25T14:33:42;55.30;48.72;66.61;;
72805;Laerm;60920;48.748;19.142;2022-08-25T14:36:08;53.56;49.33;62.81;;
72805;Laerm;60920;48.748;19.142;2022-08-25T14:38:34;53.76;48.98;66.99;;
72805;Laerm;60920;48.748;19.142;2022-08-25T14:41:02;53.97;48.39;70.03;;
72805;Laerm;60920;48.748;19.142;2022-08-25T14:43:27;53.11;47.38;67.51;;
72805;Laerm;60920;48.748;19.142;2022-08-25T14:45:54;53.78;46.55;66.85;;
72805;Laerm;60920;48.748;19.142;2022-08-25T14:48:24;53.93;49.29;62.15;;
72805;Laerm;60920;48.748;19.142;2022-08-25T14:50:51;54.34;46.54;65.89;;
72805;Laerm;60920;48.748;19.142;2022-08-25T14:53:17;52.83;46.79;64.51;;
72805;Laerm;60920;48.748;19.142;2022-08-25T14:55:42;52.13;48.36;61.73;;
72805;Laerm;60920;48.748;19.142;2022-08-25T14:58:08;52.63;47.11;65.21;;
72805;Laerm;60920;48.748;19.142;2022-08-25T15:00:35;52.67;47.72;65.85;;
72805;Laerm;60920;48.748;19.142;2022-08-25T15:03:01;53.35;48.03;68.44;;
72805;Laerm;60920;48.748;19.142;2022-08-25T15:05:26;52.58;47.64;64.12;;
72805;Laerm;60920;48.748;19.142;2022-08-25T15:07:53;53.33;47.63;60.71;;
72805;Laerm;60920;48.748;19.142;2022-08-25T15:10:37;54.47;48.63;67.07;;
72805;Laerm;60920;48.748;19.142;2022-08-25T15:13:03;53.16;49.26;62.59;;
72805;Laerm;60920;48.748;19.142;2022-08-25T15:15:30;52.70;47.58;63.94;;
72805;Laerm;60920;48.748;19.142;2022-08-25T15:17:57;52.28;47.14;60.82;;
72805;Laerm;60920;48.748;19.142;2022-08-25T15:20:22;50.89;45.72;61.92;;